Terminal Aerodrome Forecast
Issued by NWS

Home | Current Version | Previous Version | Text Only | Print | Product List | Glossary On
Versions: 1 2 3 4 5 6 7 8 9 10 11 12 13 14
000
FTUS46 KSEW 231750
TAFCLM
TAF
KCLM 231750Z 2318/2418 04003KT P6SM SCT035 BKN050
     FM240200 26005KT P6SM SCT050
     FM240800 23005KT P6SM SCT025 OVC040
     FM241100 23004KT 6SM BR VCSH SCT008 BKN018
      TEMPO 2412/2416 1SM -SHSN BR BKN004 OVC008=

USA.gov is the U.S. government's official web portal to all federal, state and local government web resources and services.